sensor_id;sensor_type;location;lat;lon;timestamp;pressure;altitude;pressure_sealevel;temperature;humidity
55685;BME280;41883;49.544;8.646;2023-05-19T00:02:13;101125.25;;;12.39;nan
55685;BME280;41883;49.544;8.646;2023-05-19T00:04:39;101121.03;;;12.46;nan
55685;BME280;41883;49.544;8.646;2023-05-19T00:07:05;101120.94;;;12.38;nan
55685;BME280;41883;49.544;8.646;2023-05-19T00:09:32;101117.09;;;12.32;nan
55685;BME280;41883;49.544;8.646;2023-05-19T00:11:57;101115.06;;;12.44;nan
55685;BME280;41883;49.544;8.646;2023-05-19T00:14:23;101109.06;;;12.42;nan
55685;BME280;41883;49.544;8.646;2023-05-19T00:16:48;101116.09;;;12.33;nan
55685;BME280;41883;49.544;8.646;2023-05-19T00:19:13;101117.34;;;12.29;nan
55685;BME280;41883;49.544;8.646;2023-05-19T00:21:40;101128.34;;;12.35;nan
55685;BME280;41883;49.544;8.646;2023-05-19T00:24:05;101122.53;;;12.31;nan
55685;BME280;41883;49.544;8.646;2023-05-19T00:26:31;101120.25;;;12.36;nan
55685;BME280;41883;49.544;8.646;2023-05-19T00:28:56;101109.25;;;12.31;nan
55685;BME280;41883;49.544;8.646;2023-05-19T00:31:21;101115.00;;;12.26;nan
55685;BME280;41883;49.544;8.646;2023-05-19T00:33:46;101115.59;;;12.20;nan
55685;BME280;41883;49.544;8.646;2023-05-19T00:36:12;101115.91;;;12.17;nan
55685;BME280;41883;49.544;8.646;2023-05-19T00:38:37;101110.78;;;12.06;nan
55685;BME280;41883;49.544;8.646;2023-05-19T00:41:04;101114.72;;;12.02;nan
55685;BME280;41883;49.544;8.646;2023-05-19T00:43:29;101123.13;;;11.97;nan
55685;BME280;41883;49.544;8.646;2023-05-19T00:45:55;101120.31;;;11.99;nan
55685;BME280;41883;49.544;8.646;2023-05-19T00:48:20;101120.22;;;11.90;nan
55685;BME280;41883;49.544;8.646;2023-05-19T00:50:46;101123.41;;;11.94;nan
55685;BME280;41883;49.544;8.646;2023-05-19T00:53:12;101114.38;;;11.87;nan
55685;BME280;41883;49.544;8.646;2023-05-19T00:55:38;101111.69;;;11.97;nan
55685;BME280;41883;49.544;8.646;2023-05-19T00:58:04;101112.78;;;11.84;nan
55685;BME280;41883;49.544;8.646;2023-05-19T01:00:30;101107.50;;;11.84;nan
55685;BME280;41883;49.544;8.646;2023-05-19T01:02:55;101107.38;;;11.86;nan
55685;BME280;41883;49.544;8.646;2023-05-19T01:05:20;101111.16;;;11.83;nan
55685;BME280;41883;49.544;8.646;2023-05-19T01:07:46;101105.97;;;11.82;nan
55685;BME280;41883;49.544;8.646;2023-05-19T01:10:11;101100.00;;;11.80;nan
55685;BME280;41883;49.544;8.646;2023-05-19T01:12:37;101108.50;;;11.83;nan
55685;BME280;41883;49.544;8.646;2023-05-19T01:15:02;101100.00;;;11.80;nan
55685;BME280;41883;49.544;8.646;2023-05-19T01:17:30;101099.72;;;11.83;nan
55685;BME280;41883;49.544;8.646;2023-05-19T01:20:19;101102.09;;;11.76;nan
55685;BME280;41883;49.544;8.646;2023-05-19T01:27:45;101090.72;;;11.66;nan
55685;BME280;41883;49.544;8.646;2023-05-19T01:30:36;101091.28;;;11.60;nan
55685;BME280;41883;49.544;8.646;2023-05-19T01:33:02;101102.25;;;11.75;nan
55685;BME280;41883;49.544;8.646;2023-05-19T01:35:28;101087.22;;;11.65;nan
55685;BME280;41883;49.544;8.646;2023-05-19T01:37:55;101086.13;;;11.58;nan
55685;BME280;41883;49.544;8.646;2023-05-19T01:40:21;101094.22;;;11.57;nan
55685;BME280;41883;49.544;8.646;2023-05-19T01:42:47;101100.75;;;11.62;nan
55685;BME280;41883;49.544;8.646;2023-05-19T01:45:13;101091.84;;;11.63;nan
55685;BME280;41883;49.544;8.646;2023-05-19T01:47:39;101091.69;;;11.65;nan
55685;BME280;41883;49.544;8.646;2023-05-19T01:50:05;101086.84;;;11.51;nan
55685;BME280;41883;49.544;8.646;2023-05-19T01:52:30;101098.13;;;11.53;nan
55685;BME280;41883;49.544;8.646;2023-05-19T01:54:55;101095.50;;;11.53;nan
55685;BME280;41883;49.544;8.646;2023-05-19T01:57:32;101096.22;;;11.45;nan
55685;BME280;41883;49.544;8.646;2023-05-19T02:00:04;101097.16;;;11.44;nan
55685;BME280;41883;49.544;8.646;2023-05-19T02:02:55;101100.13;;;11.41;nan
55685;BME280;41883;49.544;8.646;2023-05-19T02:05:22;101107.94;;;11.33;nan
55685;BME280;41883;49.544;8.646;2023-05-19T02:07:57;101110.72;;;11.41;nan
55685;BME280;41883;49.544;8.646;2023-05-19T02:10:26;101106.97;;;11.34;nan
55685;BME280;41883;49.544;8.646;2023-05-19T02:12:54;101108.78;;;11.33;nan
55685;BME280;41883;49.544;8.646;2023-05-19T02:15:27;101107.81;;;11.24;nan
55685;BME280;41883;49.544;8.646;2023-05-19T02:17:54;101109.91;;;11.21;nan
55685;BME280;41883;49.544;8.646;2023-05-19T02:20:20;101103.47;;;11.33;nan
55685;BME280;41883;49.544;8.646;2023-05-19T02:22:46;101108.94;;;11.22;nan
55685;BME280;41883;49.544;8.646;2023-05-19T02:25:12;101110.06;;;11.19;nan
55685;BME280;41883;49.544;8.646;2023-05-19T02:27:37;101116.59;;;11.25;nan
55685;BME280;41883;49.544;8.646;2023-05-19T02:30:03;101116.47;;;11.17;nan
55685;BME280;41883;49.544;8.646;2023-05-19T02:32:28;101106.00;;;11.15;nan
55685;BME280;41883;49.544;8.646;2023-05-19T02:34:53;101108.13;;;11.12;nan
55685;BME280;41883;49.544;8.646;2023-05-19T02:37:20;101113.69;;;11.09;nan
55685;BME280;41883;49.544;8.646;2023-05-19T02:39:47;101110.50;;;10.95;nan
55685;BME280;41883;49.544;8.646;2023-05-19T02:42:13;101115.06;;;11.03;nan
55685;BME280;41883;49.544;8.646;2023-05-19T02:44:41;101108.66;;;10.96;nan
55685;BME280;41883;49.544;8.646;2023-05-19T02:47:06;101104.91;;;10.89;nan
55685;BME280;41883;49.544;8.646;2023-05-19T02:49:31;101100.75;;;10.86;nan
55685;BME280;41883;49.544;8.646;2023-05-19T02:51:59;101107.72;;;10.87;nan
55685;BME280;41883;49.544;8.646;2023-05-19T02:54:25;101112.56;;;10.72;nan
55685;BME280;41883;49.544;8.646;2023-05-19T02:56:50;101108.13;;;10.63;nan
55685;BME280;41883;49.544;8.646;2023-05-19T02:59:15;101108.25;;;10.52;nan
55685;BME280;41883;49.544;8.646;2023-05-19T03:01:40;101105.31;;;10.55;nan
55685;BME280;41883;49.544;8.646;2023-05-19T03:04:05;101109.91;;;10.53;nan
55685;BME280;41883;49.544;8.646;2023-05-19T03:06:30;101109.59;;;10.46;nan
55685;BME280;41883;49.544;8.646;2023-05-19T03:08:56;101110.19;;;10.40;nan
55685;BME280;41883;49.544;8.646;2023-05-19T03:11:22;101107.66;;;10.38;nan
55685;BME280;41883;49.544;8.646;2023-05-19T03:13:47;101107.22;;;10.33;nan
55685;BME280;41883;49.544;8.646;2023-05-19T03:16:12;101106.19;;;10.25;nan
55685;BME280;41883;49.544;8.646;2023-05-19T03:18:37;101100.91;;;10.25;nan
55685;BME280;41883;49.544;8.646;2023-05-19T03:21:03;101108.00;;;10.14;nan
55685;BME280;41883;49.544;8.646;2023-05-19T03:23:28;101100.88;;;10.15;nan
55685;BME280;41883;49.544;8.646;2023-05-19T03:25:53;101109.81;;;10.14;nan
55685;BME280;41883;49.544;8.646;2023-05-19T03:28:19;101106.44;;;10.12;nan
55685;BME280;41883;49.544;8.646;2023-05-19T03:30:45;101112.13;;;10.07;nan
55685;BME280;41883;49.544;8.646;2023-05-19T03:33:10;101102.28;;;10.09;nan
55685;BME280;41883;49.544;8.646;2023-05-19T03:35:35;101101.44;;;10.09;nan
55685;BME280;41883;49.544;8.646;2023-05-19T03:38:00;101107.56;;;10.09;nan
55685;BME280;41883;49.544;8.646;2023-05-19T03:40:26;101109.78;;;10.04;nan
55685;BME280;41883;49.544;8.646;2023-05-19T03:42:51;101100.00;;;9.95;nan
55685;BME280;41883;49.544;8.646;2023-05-19T03:45:18;101111.00;;;10.00;nan
55685;BME280;41883;49.544;8.646;2023-05-19T03:47:43;101114.47;;;10.00;nan
55685;BME280;41883;49.544;8.646;2023-05-19T03:50:08;101110.88;;;10.02;nan
55685;BME280;41883;49.544;8.646;2023-05-19T03:52:34;101118.81;;;10.02;nan
55685;BME280;41883;49.544;8.646;2023-05-19T03:55:00;101126.16;;;9.98;nan
55685;BME280;41883;49.544;8.646;2023-05-19T03:57:25;101123.38;;;9.99;nan
55685;BME280;41883;49.544;8.646;2023-05-19T03:59:50;101124.59;;;9.95;nan
55685;BME280;41883;49.544;8.646;2023-05-19T04:02:16;101130.88;;;9.94;nan
55685;BME280;41883;49.544;8.646;2023-05-19T04:04:41;101137.25;;;9.92;nan
55685;BME280;41883;49.544;8.646;2023-05-19T04:07:06;101131.81;;;9.93;nan
55685;BME280;41883;49.544;8.646;2023-05-19T04:09:31;101126.41;;;9.95;nan
55685;BME280;41883;49.544;8.646;2023-05-19T04:11:59;101134.34;;;9.95;nan
55685;BME280;41883;49.544;8.646;2023-05-19T04:14:25;101122.66;;;9.97;nan
55685;BME280;41883;49.544;8.646;2023-05-19T04:16:50;101121.84;;;9.97;nan
55685;BME280;41883;49.544;8.646;2023-05-19T04:19:16;101127.56;;;10.02;nan
55685;BME280;41883;49.544;8.646;2023-05-19T04:21:41;101130.31;;;10.00;nan
55685;BME280;41883;49.544;8.646;2023-05-19T04:24:06;101137.84;;;10.05;nan
55685;BME280;41883;49.544;8.646;2023-05-19T04:26:31;101135.53;;;10.12;nan
55685;BME280;41883;49.544;8.646;2023-05-19T04:28:58;101139.81;;;10.13;nan
55685;BME280;41883;49.544;8.646;2023-05-19T04:31:23;101135.81;;;10.18;nan
55685;BME280;41883;49.544;8.646;2023-05-19T04:33:48;101148.50;;;10.25;nan
55685;BME280;41883;49.544;8.646;2023-05-19T04:36:14;101142.72;;;10.31;nan
55685;BME280;41883;49.544;8.646;2023-05-19T04:38:41;101136.03;;;10.36;nan
55685;BME280;41883;49.544;8.646;2023-05-19T04:41:06;101143.84;;;10.38;nan
55685;BME280;41883;49.544;8.646;2023-05-19T04:43:35;101148.84;;;10.41;nan
55685;BME280;41883;49.544;8.646;2023-05-19T04:46:00;101141.50;;;10.45;nan
55685;BME280;41883;49.544;8.646;2023-05-19T04:48:26;101151.38;;;10.43;nan
55685;BME280;41883;49.544;8.646;2023-05-19T04:50:51;101150.66;;;10.40;nan
55685;BME280;41883;49.544;8.646;2023-05-19T04:53:17;101150.38;;;10.44;nan
55685;BME280;41883;49.544;8.646;2023-05-19T04:55:42;101146.22;;;10.51;nan
55685;BME280;41883;49.544;8.646;2023-05-19T04:58:08;101149.31;;;10.56;nan
55685;BME280;41883;49.544;8.646;2023-05-19T05:00:33;101156.16;;;10.58;nan
55685;BME280;41883;49.544;8.646;2023-05-19T05:02:59;101153.75;;;10.65;nan
55685;BME280;41883;49.544;8.646;2023-05-19T05:05:29;101156.16;;;10.78;nan
55685;BME280;41883;49.544;8.646;2023-05-19T05:07:54;101160.47;;;10.89;nan
55685;BME280;41883;49.544;8.646;2023-05-19T05:10:20;101157.00;;;11.08;nan
55685;BME280;41883;49.544;8.646;2023-05-19T05:12:45;101157.84;;;11.27;nan
55685;BME280;41883;49.544;8.646;2023-05-19T05:15:11;101160.06;;;11.42;nan
55685;BME280;41883;49.544;8.646;2023-05-19T05:17:36;101160.03;;;11.61;nan
55685;BME280;41883;49.544;8.646;2023-05-19T05:20:01;101158.88;;;11.74;nan
55685;BME280;41883;49.544;8.646;2023-05-19T05:22:28;101157.19;;;11.92;nan
55685;BME280;41883;49.544;8.646;2023-05-19T05:24:53;101161.00;;;12.07;nan
55685;BME280;41883;49.544;8.646;2023-05-19T05:27:19;101161.13;;;12.16;nan
55685;BME280;41883;49.544;8.646;2023-05-19T05:29:44;101163.44;;;12.28;nan
55685;BME280;41883;49.544;8.646;2023-05-19T05:32:09;101156.41;;;12.37;nan
55685;BME280;41883;49.544;8.646;2023-05-19T05:34:34;101154.91;;;12.52;nan
55685;BME280;41883;49.544;8.646;2023-05-19T05:37:02;101162.63;;;12.73;nan
55685;BME280;41883;49.544;8.646;2023-05-19T05:39:27;101156.63;;;13.07;nan
55685;BME280;41883;49.544;8.646;2023-05-19T05:41:52;101157.16;;;13.47;nan
55685;BME280;41883;49.544;8.646;2023-05-19T05:44:17;101147.25;;;13.83;nan
55685;BME280;41883;49.544;8.646;2023-05-19T05:46:43;101143.56;;;13.84;nan
55685;BME280;41883;49.544;8.646;2023-05-19T05:49:08;101141.75;;;13.85;nan
55685;BME280;41883;49.544;8.646;2023-05-19T05:51:33;101147.03;;;13.76;nan
55685;BME280;41883;49.544;8.646;2023-05-19T05:53:59;101140.44;;;13.89;nan
55685;BME280;41883;49.544;8.646;2023-05-19T05:56:25;101145.72;;;13.80;nan
55685;BME280;41883;49.544;8.646;2023-05-19T05:58:51;101144.13;;;13.96;nan
55685;BME280;41883;49.544;8.646;2023-05-19T06:01:17;101141.34;;;14.06;nan
55685;BME280;41883;49.544;8.646;2023-05-19T06:03:42;101140.56;;;14.13;nan
55685;BME280;41883;49.544;8.646;2023-05-19T06:06:11;101138.47;;;14.33;nan
55685;BME280;41883;49.544;8.646;2023-05-19T06:08:37;101139.72;;;14.55;nan
55685;BME280;41883;49.544;8.646;2023-05-19T06:11:04;101140.63;;;14.89;nan
55685;BME280;41883;49.544;8.646;2023-05-19T06:13:36;101138.09;;;15.44;nan
55685;BME280;41883;49.544;8.646;2023-05-19T06:16:02;101136.72;;;15.89;nan
55685;BME280;41883;49.544;8.646;2023-05-19T06:18:27;101135.94;;;16.20;nan
55685;BME280;41883;49.544;8.646;2023-05-19T06:20:53;101142.41;;;16.57;nan
55685;BME280;41883;49.544;8.646;2023-05-19T06:23:18;101143.84;;;16.45;nan
55685;BME280;41883;49.544;8.646;2023-05-19T06:25:43;101140.75;;;16.56;nan
55685;BME280;41883;49.544;8.646;2023-05-19T06:28:08;101136.63;;;16.76;nan
55685;BME280;41883;49.544;8.646;2023-05-19T06:30:33;101140.31;;;17.22;nan
55685;BME280;41883;49.544;8.646;2023-05-19T06:33:00;101138.59;;;17.29;nan
55685;BME280;41883;49.544;8.646;2023-05-19T06:35:27;101141.75;;;17.47;nan
55685;BME280;41883;49.544;8.646;2023-05-19T06:37:52;101144.75;;;17.82;nan
55685;BME280;41883;49.544;8.646;2023-05-19T06:40:17;101138.19;;;17.70;nan
55685;BME280;41883;49.544;8.646;2023-05-19T06:42:44;101143.53;;;17.99;nan
55685;BME280;41883;49.544;8.646;2023-05-19T06:45:10;101139.81;;;18.30;nan
55685;BME280;41883;49.544;8.646;2023-05-19T06:47:35;101144.22;;;18.53;nan
55685;BME280;41883;49.544;8.646;2023-05-19T06:50:00;101134.31;;;18.89;nan
55685;BME280;41883;49.544;8.646;2023-05-19T06:52:25;101129.03;;;18.96;nan
55685;BME280;41883;49.544;8.646;2023-05-19T06:54:51;101140.06;;;18.50;nan
55685;BME280;41883;49.544;8.646;2023-05-19T06:57:16;101134.47;;;18.30;nan
55685;BME280;41883;49.544;8.646;2023-05-19T06:59:41;101136.81;;;18.55;nan
55685;BME280;41883;49.544;8.646;2023-05-19T07:02:07;101136.06;;;18.61;nan
55685;BME280;41883;49.544;8.646;2023-05-19T07:04:32;101129.94;;;18.67;nan
55685;BME280;41883;49.544;8.646;2023-05-19T07:06:59;101130.81;;;18.89;nan
55685;BME280;41883;49.544;8.646;2023-05-19T07:09:25;101130.97;;;18.87;nan
55685;BME280;41883;49.544;8.646;2023-05-19T07:11:51;101126.22;;;19.04;nan
55685;BME280;41883;49.544;8.646;2023-05-19T07:14:16;101115.72;;;18.66;nan
55685;BME280;41883;49.544;8.646;2023-05-19T07:16:41;101119.00;;;18.83;nan
55685;BME280;41883;49.544;8.646;2023-05-19T07:19:07;101111.66;;;18.34;nan
55685;BME280;41883;49.544;8.646;2023-05-19T07:21:32;101106.94;;;18.00;nan
55685;BME280;41883;49.544;8.646;2023-05-19T07:23:57;101105.84;;;18.67;nan
55685;BME280;41883;49.544;8.646;2023-05-19T07:26:22;101102.63;;;18.93;nan
55685;BME280;41883;49.544;8.646;2023-05-19T07:28:48;101109.13;;;18.84;nan
55685;BME280;41883;49.544;8.646;2023-05-19T07:31:13;101104.94;;;19.24;nan
55685;BME280;41883;49.544;8.646;2023-05-19T07:33:39;101103.09;;;19.03;nan
55685;BME280;41883;49.544;8.646;2023-05-19T07:36:04;101101.22;;;19.25;nan
55685;BME280;41883;49.544;8.646;2023-05-19T07:38:32;101098.09;;;19.85;nan
55685;BME280;41883;49.544;8.646;2023-05-19T07:40:59;101097.06;;;19.51;nan
55685;BME280;41883;49.544;8.646;2023-05-19T07:43:24;101093.59;;;19.01;nan
55685;BME280;41883;49.544;8.646;2023-05-19T07:45:49;101092.50;;;19.80;nan
55685;BME280;41883;49.544;8.646;2023-05-19T07:48:14;101091.00;;;20.19;nan
55685;BME280;41883;49.544;8.646;2023-05-19T07:50:42;101097.78;;;20.83;nan
55685;BME280;41883;49.544;8.646;2023-05-19T07:53:07;101089.50;;;20.57;nan
55685;BME280;41883;49.544;8.646;2023-05-19T07:55:32;101097.16;;;20.67;nan
55685;BME280;41883;49.544;8.646;2023-05-19T07:57:57;101082.47;;;20.63;nan
55685;BME280;41883;49.544;8.646;2023-05-19T08:00:23;101081.91;;;21.14;nan
55685;BME280;41883;49.544;8.646;2023-05-19T08:02:48;101084.59;;;21.14;nan
55685;BME280;41883;49.544;8.646;2023-05-19T08:05:13;101078.13;;;20.69;nan
55685;BME280;41883;49.544;8.646;2023-05-19T08:07:38;101086.34;;;20.41;nan
55685;BME280;41883;49.544;8.646;2023-05-19T08:10:04;101082.72;;;21.02;nan
55685;BME280;41883;49.544;8.646;2023-05-19T08:12:29;101076.34;;;21.88;nan
55685;BME280;41883;49.544;8.646;2023-05-19T08:14:54;101077.63;;;22.37;nan
55685;BME280;41883;49.544;8.646;2023-05-19T08:17:20;101074.25;;;22.73;nan
55685;BME280;41883;49.544;8.646;2023-05-19T08:19:45;101076.56;;;22.69;nan
55685;BME280;41883;49.544;8.646;2023-05-19T08:22:11;101083.00;;;22.37;nan
55685;BME280;41883;49.544;8.646;2023-05-19T08:24:36;101080.84;;;20.82;nan
55685;BME280;41883;49.544;8.646;2023-05-19T08:27:02;101076.03;;;21.64;nan
55685;BME280;41883;49.544;8.646;2023-05-19T08:29:28;101069.34;;;21.87;nan
55685;BME280;41883;49.544;8.646;2023-05-19T08:31:54;101076.13;;;22.73;nan
55685;BME280;41883;49.544;8.646;2023-05-19T08:34:19;101074.78;;;23.14;nan
55685;BME280;41883;49.544;8.646;2023-05-19T08:36:44;101075.63;;;23.32;nan
55685;BME280;41883;49.544;8.646;2023-05-19T08:39:10;101068.53;;;23.57;nan
55685;BME280;41883;49.544;8.646;2023-05-19T08:41:35;101067.41;;;23.27;nan
55685;BME280;41883;49.544;8.646;2023-05-19T08:44:00;101063.22;;;23.68;nan
55685;BME280;41883;49.544;8.646;2023-05-19T08:46:26;101061.63;;;23.42;nan
55685;BME280;41883;49.544;8.646;2023-05-19T08:48:53;101068.56;;;23.93;nan
55685;BME280;41883;49.544;8.646;2023-05-19T08:51:32;101059.41;;;23.76;nan
55685;BME280;41883;49.544;8.646;2023-05-19T08:54:03;101063.03;;;24.49;nan
55685;BME280;41883;49.544;8.646;2023-05-19T08:56:33;101052.50;;;24.29;nan
55685;BME280;41883;49.544;8.646;2023-05-19T08:58:58;101054.38;;;24.70;nan
55685;BME280;41883;49.544;8.646;2023-05-19T09:01:24;101047.06;;;24.17;nan
55685;BME280;41883;49.544;8.646;2023-05-19T09:03:50;101044.72;;;24.51;nan
55685;BME280;41883;49.544;8.646;2023-05-19T09:06:15;101043.56;;;24.58;nan
55685;BME280;41883;49.544;8.646;2023-05-19T09:08:41;101040.56;;;25.26;nan
55685;BME280;41883;49.544;8.646;2023-05-19T09:11:07;101044.06;;;24.79;nan
55685;BME280;41883;49.544;8.646;2023-05-19T09:13:33;101045.13;;;25.13;nan
55685;BME280;41883;49.544;8.646;2023-05-19T09:15:59;101040.63;;;24.95;nan
55685;BME280;41883;49.544;8.646;2023-05-19T09:18:25;101036.84;;;24.61;nan
55685;BME280;41883;49.544;8.646;2023-05-19T09:20:55;101042.56;;;24.11;nan
55685;BME280;41883;49.544;8.646;2023-05-19T09:23:26;101037.34;;;23.61;nan
55685;BME280;41883;49.544;8.646;2023-05-19T09:25:53;101038.78;;;23.82;nan
55685;BME280;41883;49.544;8.646;2023-05-19T09:28:29;101035.81;;;24.32;nan
55685;BME280;41883;49.544;8.646;2023-05-19T09:33:27;101028.41;;;23.23;nan
55685;BME280;41883;49.544;8.646;2023-05-19T09:35:53;101024.59;;;22.62;nan
55685;BME280;41883;49.544;8.646;2023-05-19T09:38:20;101027.66;;;22.66;nan
55685;BME280;41883;49.544;8.646;2023-05-19T09:40:47;101027.03;;;23.14;nan
55685;BME280;41883;49.544;8.646;2023-05-19T09:43:16;101013.63;;;22.82;nan
55685;BME280;41883;49.544;8.646;2023-05-19T09:45:42;101018.84;;;23.46;nan
55685;BME280;41883;49.544;8.646;2023-05-19T09:48:07;101011.94;;;23.31;nan
55685;BME280;41883;49.544;8.646;2023-05-19T09:50:34;101010.94;;;23.26;nan
55685;BME280;41883;49.544;8.646;2023-05-19T09:53:00;101019.94;;;23.57;nan
55685;BME280;41883;49.544;8.646;2023-05-19T09:55:27;101018.00;;;23.64;nan
55685;BME280;41883;49.544;8.646;2023-05-19T09:57:56;101020.38;;;24.51;nan
55685;BME280;41883;49.544;8.646;2023-05-19T10:00:22;101010.44;;;25.34;nan
55685;BME280;41883;49.544;8.646;2023-05-19T10:02:48;101009.34;;;25.11;nan
55685;BME280;41883;49.544;8.646;2023-05-19T10:05:16;101010.09;;;24.41;nan
55685;BME280;41883;49.544;8.646;2023-05-19T10:07:50;101004.13;;;25.57;nan
55685;BME280;41883;49.544;8.646;2023-05-19T10:10:17;101000.88;;;25.72;nan
55685;BME280;41883;49.544;8.646;2023-05-19T10:12:46;101009.59;;;27.32;nan
55685;BME280;41883;49.544;8.646;2023-05-19T10:15:15;101001.34;;;28.48;nan
55685;BME280;41883;49.544;8.646;2023-05-19T10:17:41;101003.41;;;28.08;nan
55685;BME280;41883;49.544;8.646;2023-05-19T10:20:14;100997.22;;;28.13;nan
55685;BME280;41883;49.544;8.646;2023-05-19T10:22:42;100993.47;;;28.24;nan
55685;BME280;41883;49.544;8.646;2023-05-19T10:25:09;101002.53;;;28.30;nan
55685;BME280;41883;49.544;8.646;2023-05-19T10:27:38;100993.59;;;28.34;nan
55685;BME280;41883;49.544;8.646;2023-05-19T10:30:09;100990.00;;;27.30;nan
55685;BME280;41883;49.544;8.646;2023-05-19T10:32:38;100990.19;;;27.68;nan
55685;BME280;41883;49.544;8.646;2023-05-19T10:40:50;100977.84;;;28.74;nan
55685;BME280;41883;49.544;8.646;2023-05-19T10:45:56;100978.66;;;29.80;nan
55685;BME280;41883;49.544;8.646;2023-05-19T10:48:22;100974.19;;;28.26;nan
55685;BME280;41883;49.544;8.646;2023-05-19T10:50:56;100985.59;;;29.40;nan
55685;BME280;41883;49.544;8.646;2023-05-19T10:53:29;100981.47;;;29.32;nan
55685;BME280;41883;49.544;8.646;2023-05-19T10:55:55;100988.34;;;29.50;nan
55685;BME280;41883;49.544;8.646;2023-05-19T11:01:19;100985.41;;;28.02;nan
55685;BME280;41883;49.544;8.646;2023-05-19T11:03:52;100986.16;;;27.98;nan
55685;BME280;41883;49.544;8.646;2023-05-19T11:08:43;100978.09;;;28.08;nan
55685;BME280;41883;49.544;8.646;2023-05-19T11:11:13;100976.25;;;27.86;nan
55685;BME280;41883;49.544;8.646;2023-05-19T11:13:41;100966.31;;;27.70;nan
55685;BME280;41883;49.544;8.646;2023-05-19T11:16:07;100957.59;;;27.24;nan
55685;BME280;41883;49.544;8.646;2023-05-19T11:18:34;100951.56;;;27.00;nan
55685;BME280;41883;49.544;8.646;2023-05-19T11:20:59;100958.88;;;26.60;nan
55685;BME280;41883;49.544;8.646;2023-05-19T11:23:26;100959.34;;;27.13;nan
55685;BME280;41883;49.544;8.646;2023-05-19T11:25:52;100966.44;;;27.58;nan
55685;BME280;41883;49.544;8.646;2023-05-19T11:28:22;100947.50;;;27.02;nan
55685;BME280;41883;49.544;8.646;2023-05-19T11:30:58;100956.16;;;26.60;nan
55685;BME280;41883;49.544;8.646;2023-05-19T11:33:26;100954.31;;;28.20;nan
55685;BME280;41883;49.544;8.646;2023-05-19T11:35:53;100949.84;;;29.31;nan
55685;BME280;41883;49.544;8.646;2023-05-19T11:38:22;100943.97;;;29.65;nan
55685;BME280;41883;49.544;8.646;2023-05-19T11:40:52;100948.00;;;28.14;nan
55685;BME280;41883;49.544;8.646;2023-05-19T11:43:17;100945.84;;;27.40;nan
55685;BME280;41883;49.544;8.646;2023-05-19T11:45:45;100944.28;;;26.83;nan
55685;BME280;41883;49.544;8.646;2023-05-19T11:48:11;100946.81;;;26.90;nan
55685;BME280;41883;49.544;8.646;2023-05-19T11:50:39;100943.22;;;27.72;nan
55685;BME280;41883;49.544;8.646;2023-05-19T11:53:04;100941.19;;;27.36;nan
55685;BME280;41883;49.544;8.646;2023-05-19T11:55:30;100935.84;;;27.02;nan
55685;BME280;41883;49.544;8.646;2023-05-19T11:58:00;100937.16;;;26.77;nan
55685;BME280;41883;49.544;8.646;2023-05-19T12:00:26;100924.16;;;26.28;nan
55685;BME280;41883;49.544;8.646;2023-05-19T12:02:52;100934.91;;;25.78;nan
55685;BME280;41883;49.544;8.646;2023-05-19T12:05:20;100926.44;;;25.05;nan
55685;BME280;41883;49.544;8.646;2023-05-19T12:07:48;100921.88;;;24.05;nan
55685;BME280;41883;49.544;8.646;2023-05-19T12:10:16;100934.66;;;23.98;nan
55685;BME280;41883;49.544;8.646;2023-05-19T12:12:44;100934.38;;;23.57;nan
55685;BME280;41883;49.544;8.646;2023-05-19T12:15:10;100934.47;;;23.50;nan
55685;BME280;41883;49.544;8.646;2023-05-19T12:17:35;100939.19;;;23.55;nan
55685;BME280;41883;49.544;8.646;2023-05-19T12:20:01;100937.59;;;23.84;nan
55685;BME280;41883;49.544;8.646;2023-05-19T12:22:27;100937.88;;;23.76;nan
55685;BME280;41883;49.544;8.646;2023-05-19T12:24:52;100940.06;;;23.67;nan
55685;BME280;41883;49.544;8.646;2023-05-19T12:27:19;100936.28;;;23.87;nan
55685;BME280;41883;49.544;8.646;2023-05-19T12:29:48;100935.72;;;23.66;nan
55685;BME280;41883;49.544;8.646;2023-05-19T12:32:14;100937.75;;;23.52;nan
55685;BME280;41883;49.544;8.646;2023-05-19T12:34:39;100937.06;;;23.08;nan
55685;BME280;41883;49.544;8.646;2023-05-19T12:37:05;100933.78;;;22.81;nan
55685;BME280;41883;49.544;8.646;2023-05-19T12:39:30;100926.63;;;22.50;nan
55685;BME280;41883;49.544;8.646;2023-05-19T12:42:03;100925.06;;;22.61;nan
55685;BME280;41883;49.544;8.646;2023-05-19T12:44:28;100925.56;;;22.51;nan
55685;BME280;41883;49.544;8.646;2023-05-19T12:46:55;100916.41;;;22.34;nan
55685;BME280;41883;49.544;8.646;2023-05-19T12:49:21;100924.53;;;22.27;nan
55685;BME280;41883;49.544;8.646;2023-05-19T12:51:52;100921.38;;;21.67;nan
55685;BME280;41883;49.544;8.646;2023-05-19T12:54:18;100918.72;;;21.92;nan
55685;BME280;41883;49.544;8.646;2023-05-19T12:56:48;100928.09;;;21.37;nan
55685;BME280;41883;49.544;8.646;2023-05-19T12:59:19;100929.34;;;21.41;nan
55685;BME280;41883;49.544;8.646;2023-05-19T13:01:45;100931.78;;;21.50;nan
55685;BME280;41883;49.544;8.646;2023-05-19T13:04:10;100928.41;;;21.68;nan
55685;BME280;41883;49.544;8.646;2023-05-19T13:06:35;100928.25;;;21.94;nan
55685;BME280;41883;49.544;8.646;2023-05-19T13:09:00;100916.81;;;22.31;nan
55685;BME280;41883;49.544;8.646;2023-05-19T13:11:25;100919.22;;;22.64;nan
55685;BME280;41883;49.544;8.646;2023-05-19T13:13:51;100920.63;;;22.48;nan
55685;BME280;41883;49.544;8.646;2023-05-19T13:16:17;100926.31;;;22.58;nan
55685;BME280;41883;49.544;8.646;2023-05-19T13:18:42;100916.84;;;22.74;nan
55685;BME280;41883;49.544;8.646;2023-05-19T13:21:07;100924.03;;;22.80;nan
55685;BME280;41883;49.544;8.646;2023-05-19T13:23:33;100921.00;;;22.52;nan
55685;BME280;41883;49.544;8.646;2023-05-19T13:25:58;100920.63;;;22.16;nan
55685;BME280;41883;49.544;8.646;2023-05-19T13:28:24;100927.28;;;22.45;nan
55685;BME280;41883;49.544;8.646;2023-05-19T13:30:50;100920.09;;;22.08;nan